Latest Coastal Weather Observations for Stenhouse Bay

IDS60701

Issued at 12:51 pm CST Monday 25 May 2015 (issued every 10 minutes, with the page automatically refreshed every 10 minutes)

About coastal observations | Map of coastal stations | Coastal observations for SA | Marine services | Other Formats
Station Details ID: 022049 Name: STENHOUSE BAY Lat: -35.28 Lon: 136.94 Height: 42.0 m
Data from the previous 72 hours. | See also: Recent months at Stenhouse Bay
Date/Time
CST
Temp

°C
Wind Pressure Rain
since 9am
mm
Weather Cloud Vis
km
Sea
Height
m
Swell
Dir
 
Speed
knots
Gust
knots
hPa Trend Height
m
Period
s
Dir
25/12:30pm 17.1 ESE 5 5 1026.5 - 0.0 - - - - - - -
25/12:00pm 16.9 ESE 5 6 1026.7 - 0.0 - - - - - - -
25/11:30am 16.2 SE 4 5 1027.4 - 0.0 - - - - - - -
25/10:30am 16.5 NNE 4 6 1028.2 - 0.0 - - - - - - -
25/10:00am 16.0 N 6 7 1028.2 - 0.0 - - - - - - -
25/09:30am 15.0 NNE 4 5 1028.4 - 0.0 - - - - - - -
25/09:00am 14.3 NE 4 5 1028.5 - 0.4 - - - - - - -
25/08:30am 14.1 NE 5 7 1028.5 - 0.4 - - - - - - -
25/08:00am 13.5 ENE 6 8 1028.2 - 0.4 - - - - - - -
25/07:30am 11.9 ENE 3 4 1028.0 - 0.4 - - - - - - -
25/07:00am 11.6 NE 3 4 1027.7 - 0.4 - - - - - - -
25/06:30am 10.9 NE 3 4 1027.6 - 0.4 - - - - - - -
25/06:00am 10.7 N 3 4 1027.5 - 0.4 - - - - - - -
25/05:30am 10.7 N 4 5 1027.3 - 0.4 - - - - - - -
25/05:00am 10.5 NNW 5 5 1027.2 - 0.4 - - - - - - -
25/04:30am 10.6 N 5 7 1027.2 - 0.4 - - - - - - -
25/04:00am 10.9 N 5 7 1027.2 - 0.4 - - - - - - -
25/03:30am 11.2 N 5 6 1027.2 - 0.4 - - - - - - -
25/03:00am 11.7 N 5 6 1027.5 - 0.4 - - - - - - -
25/02:30am 11.4 NNW 5 6 1027.6 - 0.4 - - - - - - -
25/02:00am 11.2 NNW 6 6 1027.7 - 0.4 - - - - - - -
25/01:30am 11.2 N 5 6 1027.5 - 0.4 - - - - - - -
25/01:00am 11.4 NNW 6 7 1027.7 - 0.4 - - - - - - -
25/12:30am 11.9 N 5 7 1027.8 - 0.4 - - - - - - -
25/12:00am 12.7 NNE 4 5 1027.9 - 0.4 Recent precip. - - - - - -
 
Date/Time
CST
Temp

°C
Wind Pressure Rain
since 9am
mm
Weather Cloud Vis
km
Sea
Height
m
Swell
Dir
 
Speed
knots
Gust
knots
hPa Trend Height
m
Period
s
Dir
24/11:30pm 13.1 NE 5 7 1028.2 - 0.2 - - - - - - -
24/11:00pm 13.4 E 2 5 1028.3 - 0.2 - - - - - - -
24/10:30pm 13.6 E 5 5 1028.0 - 0.0 - - - - - - -
24/10:00pm 13.5 NE 5 6 1028.1 - 0.0 - - - - - - -
24/09:30pm 12.6 NNE 3 4 1027.8 - 0.0 - - - - - - -
24/09:00pm 12.7 NE 2 5 1027.7 - 0.0 - - - - - - -
24/08:30pm 12.7 N 3 5 1027.2 - 0.0 - - - - - - -
24/08:00pm 12.8 NNW 4 5 1027.1 - 0.0 - - - - - - -
24/07:30pm 12.7 NNW 6 7 1027.3 - 0.0 - - - - - - -
24/07:00pm 12.8 N 6 8 1027.4 - 0.0 - - - - - - -
24/06:30pm 13.0 N 5 6 1027.3 - 0.0 - - - - - - -
24/06:00pm 13.3 NNW 4 5 1027.0 - 0.0 - - - - - - -
24/05:30pm 13.6 N 5 8 1027.2 - 0.0 - - - - - - -
24/05:00pm 13.9 N 5 7 1027.0 - 0.0 - - - - - - -
24/04:30pm 14.3 N 7 9 1026.9 - 0.0 - - - - - - -
24/04:00pm 14.6 N 8 11 1026.7 - 0.0 - - - - - - -
24/03:30pm 14.9 N 7 9 1026.6 - 0.0 - - - - - - -
24/03:00pm 15.3 N 8 11 1026.4 - 0.0 - - - - - - -
24/02:30pm 15.9 NNW 9 12 1026.4 - 0.0 - - - - - - -
24/02:00pm 16.2 NNW 9 12 1026.5 - 0.0 - - - - - - -
24/01:30pm 16.3 NNW 11 13 1026.7 - 0.0 - - - - - - -
24/01:00pm 16.3 NNW 11 16 1026.9 - 0.0 - - - - - - -
24/12:30pm 16.3 N 9 12 1027.3 - 0.0 - - - - - - -
24/12:00pm 16.1 N 10 15 1027.6 - 0.0 - - - - - - -
24/11:30am 16.4 N 12 16 1027.7 - 0.0 - - - - - - -
24/11:00am 17.0 N 9 13 1027.8 - 0.0 - - - - - - -
24/10:30am 15.9 N 9 13 1027.8 - 0.0 - - - - - - -
24/10:00am 13.7 N 7 10 1027.7 - 0.0 - - - - - - -
24/09:30am 12.5 N 6 8 1027.6 - 0.0 - - - - - - -
24/09:00am 11.3 N 6 8 1027.5 - 0.0 - - - - - - -
24/08:30am 10.7 N 7 9 1027.5 - 0.0 - - - - - - -
24/08:00am 10.3 N 8 10 1027.5 - 0.0 - - - - - - -
24/07:30am 9.8 N 8 9 1027.3 - 0.0 - - - - - - -
24/07:00am 9.5 N 7 10 1027.1 - 0.0 - - - - - - -
24/06:30am 9.5 N 6 7 1026.9 - 0.0 - - - - - - -
24/06:00am 9.5 N 8 9 1026.7 - 0.0 - - - - - - -
24/05:30am 9.5 N 7 9 1026.6 - 0.0 - - - - - - -
24/05:00am 9.2 N 7 8 1026.5 - 0.0 - - - - - - -
24/04:30am 9.0 N 7 8 1026.2 - 0.0 - - - - - - -
24/04:00am 9.1 N 6 8 1026.1 - 0.0 - - - - - - -
24/03:30am 9.2 N 7 9 1026.3 - 0.0 - - - - - - -
24/03:00am 9.0 N 6 9 1026.3 - 0.0 - - - - - - -
24/02:30am 9.0 N 6 8 1026.5 - 0.0 - - - - - - -
24/02:00am 9.1 N 6 7 1026.6 - 0.0 - - - - - - -
24/01:30am 10.0 NNE 6 7 1026.8 - 0.0 - - - - - - -
24/01:00am 11.4 NNE 6 9 1027.0 - 0.0 - - - - - - -
24/12:30am 12.4 NE 8 12 1027.3 - 0.0 - - - - - - -
24/12:00am 12.8 NE 8 11 1027.4 - 0.0 - - - - - - -
 
Date/Time
CST
Temp

°C
Wind Pressure Rain
since 9am
mm
Weather Cloud Vis
km
Sea
Height
m
Swell
Dir
 
Speed
knots
Gust
knots
hPa Trend Height
m
Period
s
Dir
23/11:30pm 12.6 NE 10 12 1027.5 - 0.0 - - - - - - -
23/11:00pm 12.5 ENE 8 11 1027.7 - 0.0 - - - - - - -
23/10:30pm 12.6 ENE 8 11 1028.0 - 0.0 - - - - - - -
23/10:00pm 12.5 NE 8 10 1028.0 - 0.0 - - - - - - -
23/09:30pm 12.6 ENE 9 10 1028.2 - 0.0 - - - - - - -
23/09:00pm 12.6 ENE 8 11 1028.3 - 0.0 - - - - - - -
23/08:30pm 12.4 NE 9 12 1028.3 - 0.0 - - - - - - -
23/08:00pm 12.4 NE 9 11 1028.5 - 0.0 - - - - - - -
23/07:30pm 12.7 NE 10 13 1028.5 - 0.0 - - - - - - -
23/07:00pm 13.1 ENE 11 14 1028.3 - 0.0 - - - - - - -
23/06:30pm 13.5 ENE 11 15 1028.0 - 0.0 - - - - - - -
23/06:00pm 13.6 ENE 11 15 1027.8 - 0.0 - - - - - - -
23/05:30pm 13.7 ENE 10 14 1027.7 - 0.0 - - - - - - -
23/05:00pm 13.7 E 11 14 1027.9 - 0.0 - - - - - - -
23/04:30pm 13.9 E 11 13 1028.2 - 0.0 - - - - - - -
23/04:00pm 14.2 E 9 13 1028.3 - 0.0 - - - - - - -
23/03:30pm 14.5 E 9 12 1028.3 - 0.0 - - - - - - -
23/03:00pm 14.6 E 9 11 1028.5 - 0.0 - - - - - - -
23/02:30pm 15.0 E 8 10 1028.7 - 0.0 - - - - - - -
23/02:00pm 15.3 E 10 12 1028.8 - 0.0 - - - - - - -
23/01:30pm 14.4 E 10 13 1029.0 - 0.0 - - - - - - -
23/01:00pm 14.6 E 10 12 1029.3 - 0.0 - - - - - - -
23/12:30pm 14.8 E 9 12 1029.6 - 0.0 - - - - - - -
23/12:00pm 14.3 E 9 13 1030.0 - 0.0 - - - - - - -
23/11:30am 14.4 ENE 8 11 1030.6 - 0.0 - - - - - - -
23/11:00am 14.3 ENE 8 12 1031.0 - 0.0 - - - - - - -
23/10:30am 13.8 NE 9 11 1031.2 - 0.0 - - - - - - -
23/10:00am 13.2 NE 7 10 1031.4 - 0.0 - - - - - - -
23/09:30am 11.7 N 5 7 1031.8 - 0.0 - - - - - - -
23/09:00am 10.8 N 4 5 1031.8 - 0.8 - - - - - - -
23/08:30am 9.4 N 4 6 1031.8 - 0.8 - - - - - - -
23/08:00am 8.4 N 5 7 1031.7 - 0.8 - - - - - - -
23/07:30am 7.2 N 4 5 1031.4 - 0.8 - - - - - - -
23/07:00am 7.7 NNE 5 7 1031.1 - 0.8 - - - - - - -
23/06:30am 8.3 NNE 6 8 1030.7 - 0.8 - - - - - - -
23/06:00am 8.0 NNE 6 9 1030.8 - 0.8 - - - - - - -
23/05:30am 7.4 N 4 5 1030.7 - 0.8 - - - - - - -
23/05:00am 8.4 NNE 6 8 1030.5 - 0.8 - - - - - - -
23/04:30am 8.0 N 5 7 1030.6 - 0.8 - - - - - - -
23/04:00am 8.7 N 4 6 1030.6 - 0.8 - - - - - - -
23/03:30am 9.3 N 4 7 1030.6 - 0.8 - - - - - - -
23/03:00am 9.3 NNE 4 6 1030.8 - 0.8 - - - - - - -
23/02:30am 9.7 NNE 3 5 1030.8 - 0.8 - - - - - - -
23/02:00am 9.8 N 3 4 1031.0 - 0.8 - - - - - - -
23/01:30am 12.5 ENE 9 13 1031.2 - 0.8 - - - - - - -
23/01:00am 11.8 NNE 4 12 1031.3 - 0.8 - - - - - - -
23/12:30am 13.0 E 8 11 1031.5 - 0.8 - - - - - - -
23/12:00am 13.4 E 10 14 1031.7 - 0.8 - - - - - - -
 
Date/Time
CST
Temp

°C
Wind Pressure Rain
since 9am
mm
Weather Cloud Vis
km
Sea
Height
m
Swell
Dir
 
Speed
knots
Gust
knots
hPa Trend Height
m
Period
s
Dir
22/11:30pm 13.5 E 10 14 1031.6 - 0.8 - - - - - - -
22/11:00pm 13.5 E 11 15 1031.5 - 0.8 - - - - - - -
22/10:30pm 13.6 E 9 13 1031.7 - 0.8 - - - - - - -
22/10:00pm 13.4 ESE 12 14 1031.6 - 0.8 - - - - - - -
22/09:30pm 13.4 ESE 12 15 1031.4 - 0.8 - - - - - - -
22/09:00pm 13.5 ESE 10 12 1031.5 - 0.8 - - - - - - -
22/08:30pm 13.5 E 10 12 1031.6 - 0.8 - - - - - - -
22/08:00pm 13.3 E 10 13 1031.6 - 0.8 - - - - - - -
22/07:30pm 13.3 E 10 16 1031.6 - 0.8 - - - - - - -
22/07:00pm 13.5 ESE 13 17 1031.5 - 0.8 - - - - - - -
22/06:30pm 13.6 SE 12 16 1031.6 - 0.8 - - - - - - -
22/06:00pm 13.5 SE 10 13 1031.4 - 0.8 - - - - - - -
22/05:30pm 13.7 ESE 11 14 1031.2 - 0.8 - - - - - - -
22/05:00pm 13.7 ESE 12 15 1031.2 - 0.8 - - - - - - -
22/04:30pm 14.1 ESE 11 14 1031.0 - 0.8 - - - - - - -
22/04:00pm 14.5 ESE 8 11 1031.0 - 0.8 - - - - - - -
22/03:30pm 15.0 E 9 11 1031.1 - 0.8 - - - - - - -
22/03:00pm 15.3 E 8 10 1031.3 - 0.8 - - - - - - -
22/02:30pm 15.5 ESE 7 10 1031.2 - 0.8 - - - - - - -
22/02:00pm 15.1 ESE 9 13 1031.4 - 0.8 - - - - - - -
22/01:30pm 15.4 E 7 9 1031.5 - 0.8 - - - - - - -
22/01:00pm 15.0 E 7 10 1031.7 - 0.8 - - - - - - -

Other Formats:

Comma delimited format used in spreadsheet applications
http://www.bom.gov.au/fwo/IDS60701/IDS60701.95806.axf

JavaScript Object Notation format (JSON) in row-major order
http://www.bom.gov.au/fwo/IDS60701/IDS60701.95806.json